Time;durP1;ratioP1;P1;durP2;ratioP2;P2;SDS_P1;SDS_P2;PMS_P1;PMS_P2;Temp;Humidity;BMP_temperature;BMP_pressure;BME280_temperature;BME280_humidity;BME280_pressure;Samples;Min_cycle;Max_cycle;Signal;HPM_P1;HPM_P2
2021/01/28 00:00:33;;;;;;;138.80;49.85;;;;;;;-2.49;81.59;97629.75;5093669;28;20501;-75
2021/01/28 00:03:14;;;;;;;147.57;48.72;;;;;;;-2.60;82.92;97627.47;5094251;28;20109;-74
2021/01/28 00:05:42;;;;;;;148.45;52.67;;;;;;;-2.63;83.90;97628.38;5094254;28;20044;-75
2021/01/28 00:08:09;;;;;;;161.38;58.25;;;;;;;-2.69;83.29;97620.84;5094177;28;20063;-74
2021/01/28 00:10:36;;;;;;;191.52;62.80;;;;;;;-2.73;83.81;97621.81;5094021;28;20047;-75
2021/01/28 00:13:07;;;;;;;215.48;66.75;;;;;;;-2.79;84.06;97614.28;5093603;28;20093;-76
2021/01/28 00:15:35;;;;;;;224.15;72.47;;;;;;;-2.84;83.81;97619.53;5093965;28;20075;-75
2021/01/28 00:18:02;;;;;;;231.27;74.35;;;;;;;-2.95;85.77;97608.69;5093538;28;20100;-76
2021/01/28 00:20:38;;;;;;;197.25;64.43;;;;;;;-2.98;84.83;97608.75;5092202;28;20052;-75
2021/01/28 00:23:06;;;;;;;216.38;68.55;;;;;;;-3.03;85.50;97610.59;5094191;28;20074;-75
2021/01/28 00:25:33;;;;;;;217.63;71.50;;;;;;;-3.07;86.87;97610.69;5093305;28;20105;-75
2021/01/28 00:27:59;;;;;;;223.43;69.07;;;;;;;-3.07;85.98;97617.53;5092767;28;20059;-75
2021/01/28 00:30:39;;;;;;;237.57;74.50;;;;;;;-3.12;85.97;97612.53;5093304;28;20040;-75
2021/01/28 00:33:05;;;;;;;228.38;68.80;;;;;;;-3.18;85.88;97601.56;5093497;28;20051;-75
2021/01/28 00:35:39;;;;;;;212.43;70.05;;;;;;;-3.15;86.60;97606.59;5093287;28;20040;-74
2021/01/28 00:38:11;;;;;;;230.50;70.20;;;;;;;-3.24;86.28;97588.03;5093162;28;20047;-75
2021/01/28 00:40:37;;;;;;;230.27;72.75;;;;;;;-3.13;85.51;97595.44;5093226;28;20076;-75
2021/01/28 00:43:03;;;;;;;225.15;69.55;;;;;;;-3.20;85.50;97593.91;5093922;28;20048;-75
2021/01/28 00:45:32;;;;;;;227.02;70.97;;;;;;;-3.25;86.04;97586.31;5098741;28;20487;-77
2021/01/28 00:47:58;;;;;;;212.23;65.50;;;;;;;-3.27;85.16;97584.69;5093175;28;20055;-75
2021/01/28 00:50:29;;;;;;;222.13;64.30;;;;;;;-3.25;84.00;97588.06;5092966;28;20044;-75
2021/01/28 00:52:55;;;;;;;206.15;65.55;;;;;;;-3.28;84.54;97575.31;5093127;28;20032;-75
2021/01/28 00:55:22;;;;;;;193.57;62.47;;;;;;;-3.31;84.71;97583.06;5092947;28;20567;-81
2021/01/28 00:57:49;;;;;;;187.27;62.92;;;;;;;-3.37;85.00;97580.66;5092858;28;20052;-75
2021/01/28 01:00:27;;;;;;;217.40;68.75;;;;;;;-3.36;84.89;97583.19;5092942;28;20131;-76
2021/01/28 01:02:54;;;;;;;201.10;65.93;;;;;;;-3.34;84.12;97581.41;5093253;28;20040;-75
2021/01/28 01:05:23;;;;;;;217.02;69.88;;;;;;;-3.30;84.41;97582.22;5092929;28;20036;-75
2021/01/28 01:07:51;;;;;;;233.63;72.60;;;;;;;-3.32;85.38;97584.81;5092794;28;20036;-75
2021/01/28 01:10:39;;;;;;;239.50;75.15;;;;;;;-3.31;85.17;97585.63;5092818;28;20040;-75
2021/01/28 01:13:10;;;;;;;242.32;75.15;;;;;;;-3.33;85.16;97580.56;5091905;28;20040;-74
2021/01/28 01:15:38;;;;;;;255.25;79.22;;;;;;;-3.35;84.98;97563.50;5092421;28;20064;-74
2021/01/28 01:18:06;;;;;;;258.27;79.95;;;;;;;-3.33;85.02;97577.16;5092750;28;20118;-75
2021/01/28 01:20:32;;;;;;;265.15;84.45;;;;;;;-3.34;85.15;97578.03;5092690;28;20044;-75
2021/01/28 01:22:58;;;;;;;268.15;84.47;;;;;;;-3.32;84.62;97572.00;5092266;28;20048;-74
2021/01/28 01:25:24;;;;;;;243.90;77.35;;;;;;;-3.37;84.33;97566.13;5092305;28;20093;-80
2021/01/28 01:27:50;;;;;;;258.27;80.90;;;;;;;-3.46;84.37;97571.47;5092710;28;20051;-74
2021/01/28 01:30:20;;;;;;;254.05;79.85;;;;;;;-3.54;85.14;97563.13;5093586;28;20052;-75
2021/01/28 01:32:46;;;;;;;235.20;79.25;;;;;;;-3.53;85.24;97565.66;5092398;28;20051;-74
2021/01/28 01:35:14;;;;;;;240.30;79.78;;;;;;;-3.57;85.50;97568.31;5092809;28;20044;-74
2021/01/28 01:37:40;;;;;;;250.45;81.10;;;;;;;-3.65;85.94;97553.13;5092263;28;20438;-74
2021/01/28 01:40:10;;;;;;;251.32;81.50;;;;;;;-3.63;86.15;97559.91;5092498;28;20056;-75
2021/01/28 01:42:40;;;;;;;251.55;80.05;;;;;;;-3.69;86.30;97554.06;5092576;28;20491;-75
2021/01/28 01:45:09;;;;;;;234.68;81.75;;;;;;;-3.84;87.00;97543.31;5092196;28;20138;-75
2021/01/28 01:47:50;;;;;;;222.10;72.93;;;;;;;-3.90;87.79;97546.00;5091224;28;20392;-75
2021/01/28 01:50:38;;;;;;;234.85;81.57;;;;;;;-3.87;88.01;97542.53;5093067;28;20062;-75
2021/01/28 01:53:16;;;;;;;218.27;74.75;;;;;;;-3.92;88.29;97527.28;5092555;28;20055;-75
2021/01/28 01:55:48;;;;;;;230.20;78.03;;;;;;;-3.89;88.01;97524.66;5091521;28;20051;-74
2021/01/28 01:58:22;;;;;;;237.40;80.90;;;;;;;-4.02;88.73;97526.63;5092483;28;20074;-74
2021/01/28 02:00:49;;;;;;;230.15;75.85;;;;;;;-4.24;89.39;97520.31;5090635;28;20072;-74
2021/01/28 02:03:14;;;;;;;218.98;74.57;;;;;;;-4.21;90.40;97526.19;5092264;28;20187;-75
2021/01/28 02:05:49;;;;;;;210.75;73.10;;;;;;;-4.19;90.71;97528.72;5091919;28;20089;-74
2021/01/28 02:08:15;;;;;;;210.80;73.32;;;;;;;-4.29;90.37;97522.97;5091584;28;20467;-74
2021/01/28 02:10:41;;;;;;;207.98;72.25;;;;;;;-4.17;91.30;97526.97;5092272;28;20055;-75
2021/01/28 02:13:07;;;;;;;216.02;74.70;;;;;;;-4.27;91.30;97523.75;5093621;28;20040;-74
2021/01/28 02:15:33;;;;;;;205.23;75.13;;;;;;;-4.35;91.70;97518.81;5095941;28;20040;-75
2021/01/28 02:18:00;;;;;;;198.75;71.05;;;;;;;-4.45;91.97;97512.19;5101839;28;20124;-74
2021/01/28 02:20:43;;;;;;;177.25;60.30;;;;;;;-4.43;93.02;97513.03;5079130;28;20117;-75
2021/01/28 02:23:31;;;;;;;180.02;67.30;;;;;;;-4.51;93.82;97513.19;5096376;28;20048;-75
2021/01/28 02:25:57;;;;;;;201.25;70.65;;;;;;;-4.53;94.19;97498.72;5094175;28;20083;-75
2021/01/28 02:28:23;;;;;;;190.18;71.45;;;;;;;-4.53;94.40;97488.50;5095643;28;20139;-75
2021/01/28 02:30:54;;;;;;;178.48;62.50;;;;;;;-4.49;94.44;97492.69;5094782;28;20465;-75
2021/01/28 02:33:51;;;;;;;198.57;70.25;;;;;;;-4.57;94.38;97489.44;5094481;28;20399;-74
2021/01/28 02:36:18;;;;;;;194.82;70.50;;;;;;;-4.65;94.84;97493.88;5094070;28;20074;-75
2021/01/28 02:38:44;;;;;;;192.95;70.85;;;;;;;-4.68;95.07;97495.63;5095685;28;20081;-75
2021/01/28 02:41:12;;;;;;;190.80;71.70;;;;;;;-4.73;95.23;97486.34;5095413;28;20078;-73
2021/01/28 02:43:38;;;;;;;198.23;71.32;;;;;;;-4.75;95.44;97494.06;5093951;28;20055;-74
2021/01/28 02:46:11;;;;;;;175.55;68.22;;;;;;;-4.81;96.29;97478.00;5095477;28;20127;-76
2021/01/28 02:48:38;;;;;;;181.48;71.22;;;;;;;-4.80;96.59;97479.66;5095175;28;20539;-75
2021/01/28 02:51:07;;;;;;;188.18;71.13;;;;;;;-4.86;96.75;97478.09;5094265;28;20071;-75
2021/01/28 02:53:49;;;;;;;190.13;72.75;;;;;;;-4.94;96.47;97475.69;5094752;28;20040;-76
2021/01/28 02:56:15;;;;;;;176.70;60.63;;;;;;;-4.87;97.46;97478.94;5094760;28;20040;-75
2021/01/28 02:58:41;;;;;;;167.00;62.47;;;;;;;-4.91;96.94;97482.44;5094716;28;20047;-75
2021/01/28 03:01:09;;;;;;;181.38;67.63;;;;;;;-4.92;97.00;97484.16;5095483;28;20094;-75
2021/01/28 03:03:36;;;;;;;169.45;62.92;;;;;;;-4.97;97.48;97488.53;5093944;28;20048;-75
2021/01/28 03:06:02;;;;;;;171.48;63.03;;;;;;;-4.93;96.73;97473.97;5093429;28;20048;-77
2021/01/28 03:08:29;;;;;;;173.75;66.38;;;;;;;-4.90;96.63;97474.72;5095342;28;20048;-75
2021/01/28 03:10:55;;;;;;;169.00;64.78;;;;;;;-5.03;95.80;97474.13;5110955;28;20428;-76
2021/01/28 03:13:23;;;;;;;146.85;54.75;;;;;;;-5.02;96.53;97474.97;5094351;28;20136;-75
2021/01/28 03:15:49;;;;;;;143.30;53.13;;;;;;;-5.10;95.86;97464.88;5094462;28;20044;-75
2021/01/28 03:18:17;;;;;;;122.55;46.10;;;;;;;-5.10;96.21;97459.78;5095083;28;20119;-73
2021/01/28 03:20:43;;;;;;;139.73;54.65;;;;;;;-5.08;95.52;97460.63;5093276;28;20487;-76
2021/01/28 03:23:09;;;;;;;146.00;54.42;;;;;;;-5.19;95.01;97459.94;5094152;28;20055;-76
2021/01/28 03:25:36;;;;;;;136.77;53.72;;;;;;;-5.19;95.90;97454.84;5093143;28;20131;-77
2021/01/28 03:28:04;;;;;;;142.40;54.63;;;;;;;-5.30;96.04;97447.41;5095063;28;20044;-76
2021/01/28 03:30:35;;;;;;;132.13;50.13;;;;;;;-5.29;96.36;97445.69;5093769;28;20043;-76
2021/01/28 03:33:04;;;;;;;140.80;51.35;;;;;;;-5.33;96.29;97439.81;5093138;28;20495;-75
2021/01/28 03:35:31;;;;;;;138.80;52.22;;;;;;;-5.34;96.68;97452.59;5094228;28;20064;-75
2021/01/28 03:37:57;;;;;;;123.57;47.50;;;;;;;-5.38;95.09;97448.41;5094232;28;20127;-75
2021/01/28 03:40:28;;;;;;;122.43;47.25;;;;;;;-5.40;95.06;97444.16;5094188;28;20131;-76
2021/01/28 03:42:54;;;;;;;148.80;53.28;;;;;;;-5.35;95.86;97435.59;5094154;28;20391;-75
2021/01/28 03:45:22;;;;;;;152.52;57.20;;;;;;;-5.41;95.88;97442.50;5092802;28;20126;-75
2021/01/28 03:47:48;;;;;;;154.63;59.65;;;;;;;-5.42;96.11;97440.81;5094096;28;20092;-75
2021/01/28 03:50:19;;;;;;;161.63;59.97;;;;;;;-5.42;96.61;97429.75;5097912;28;20036;-75
2021/01/28 03:52:44;;;;;;;168.40;64.97;;;;;;;-5.44;96.58;97426.38;5101683;28;20112;-76
2021/01/28 03:55:11;;;;;;;188.75;68.32;;;;;;;-5.48;96.50;97412.00;5094060;28;20059;-75
2021/01/28 03:57:37;;;;;;;176.52;65.60;;;;;;;-5.58;97.01;97401.09;5093453;28;20185;-80
2021/01/28 04:00:09;;;;;;;169.82;64.55;;;;;;;-5.65;97.04;97408.03;5093844;28;20068;-76
2021/01/28 04:02:35;;;;;;;185.55;67.72;;;;;;;-5.71;97.01;97410.69;5092758;28;20044;-81
2021/01/28 04:05:02;;;;;;;179.30;67.55;;;;;;;-5.72;98.18;97405.59;5092455;28;20127;-78
2021/01/28 04:07:28;;;;;;;174.90;65.13;;;;;;;-5.69;98.30;97401.28;5092435;28;20088;-75
2021/01/28 04:09:54;;;;;;;169.20;63.25;;;;;;;-5.70;97.96;97409.81;5093898;28;20036;-75
2021/01/28 04:12:20;;;;;;;170.45;60.95;;;;;;;-5.65;97.19;97408.03;5093198;28;20051;-75
2021/01/28 04:14:46;;;;;;;145.15;56.50;;;;;;;-5.62;96.41;97402.03;5093833;28;20040;-76
2021/01/28 04:17:13;;;;;;;154.68;56.10;;;;;;;-5.70;95.98;97404.72;5093076;28;20085;-75
2021/01/28 04:19:39;;;;;;;146.73;54.30;;;;;;;-5.71;95.69;97409.84;5093359;28;20087;-81
2021/01/28 04:22:04;;;;;;;139.90;51.40;;;;;;;-5.78;95.53;97397.19;5093659;28;20154;-76
2021/01/28 04:24:31;;;;;;;138.27;52.53;;;;;;;-5.87;95.60;97399.91;5093746;28;20051;-75
2021/01/28 04:26:56;;;;;;;136.15;48.95;;;;;;;-5.84;96.00;97407.50;5093696;28;20035;-76
2021/01/28 04:29:22;;;;;;;134.25;48.75;;;;;;;-5.89;95.91;97393.13;5092037;28;20036;-75
2021/01/28 04:31:48;;;;;;;131.60;51.85;;;;;;;-6.02;95.69;97387.44;5093445;28;20109;-75
2021/01/28 04:34:14;;;;;;;143.88;53.10;;;;;;;-5.95;96.13;97401.72;5092806;28;20436;-74
2021/01/28 04:36:40;;;;;;;141.32;49.33;;;;;;;-5.99;95.90;97402.69;5091873;28;20093;-78
2021/01/28 04:39:06;;;;;;;129.18;48.03;;;;;;;-5.96;95.64;97405.16;5091826;28;20391;-76
2021/01/28 04:41:33;;;;;;;143.25;51.42;;;;;;;-5.98;95.24;97406.91;5093345;28;20054;-73
2021/01/28 04:44:00;;;;;;;131.25;47.20;;;;;;;-6.02;94.93;97410.41;5091903;28;20125;-76
2021/01/28 04:46:35;;;;;;;135.65;49.85;;;;;;;-6.01;94.86;97406.97;5093274;28;20059;-75
2021/01/28 04:49:05;;;;;;;133.20;48.78;;;;;;;-6.15;94.68;97408.03;5092206;28;20189;-76
2021/01/28 04:51:33;;;;;;;123.90;49.75;;;;;;;-6.20;95.58;97404.69;5091920;28;20052;-75
2021/01/28 04:54:22;;;;;;;131.73;45.67;;;;;;;-6.10;95.88;97397.75;5075173;28;20043;-75
2021/01/28 04:56:50;;;;;;;123.72;46.47;;;;;;;-6.15;95.79;97408.03;5092680;28;20519;-75
2021/01/28 04:59:24;;;;;;;122.32;44.30;;;;;;;-6.16;96.06;97403.78;5092838;28;20097;-75
2021/01/28 05:01:51;;;;;;;131.20;45.40;;;;;;;-6.19;95.93;97400.47;5092692;28;20047;-75
2021/01/28 05:04:19;;;;;;;128.80;50.42;;;;;;;-6.16;96.15;97396.16;5093283;28;20052;-74
2021/01/28 05:06:51;;;;;;;124.10;44.83;;;;;;;-6.12;96.37;97397.78;5091290;28;20074;-75
2021/01/28 05:09:18;;;;;;;138.80;51.73;;;;;;;-6.15;96.19;97392.75;5093164;28;20052;-74
2021/01/28 05:11:53;;;;;;;132.68;50.42;;;;;;;-6.23;96.67;97369.03;5093059;28;20105;-74
2021/01/28 05:14:30;;;;;;;130.50;51.13;;;;;;;-6.11;96.80;97375.66;5093041;28;20464;-75
2021/01/28 05:16:59;;;;;;;148.30;55.95;;;;;;;-6.09;96.38;97367.97;5092990;28;20051;-75
2021/01/28 05:19:31;;;;;;;149.60;56.53;;;;;;;-6.06;96.24;97370.47;5092748;28;20050;-74
2021/01/28 05:22:28;;;;;;;151.88;58.92;;;;;;;-6.06;95.51;97356.00;5092361;28;20050;-75
2021/01/28 05:25:01;;;;;;;156.95;59.35;;;;;;;-6.15;95.97;97357.03;5093014;28;20044;-74
2021/01/28 05:27:35;;;;;;;157.80;61.72;;;;;;;-6.18;96.04;97349.41;5091169;28;20412;-76
2021/01/28 05:30:09;;;;;;;147.75;54.85;;;;;;;-6.11;96.05;97352.69;5092228;28;20509;-76
2021/01/28 05:32:46;;;;;;;147.82;56.50;;;;;;;-6.12;96.05;97346.75;5090945;28;20059;-79
2021/01/28 05:35:26;;;;;;;159.65;57.13;;;;;;;-6.08;96.11;97346.72;5091337;28;20456;-77
2021/01/28 05:38:11;;;;;;;157.43;61.42;;;;;;;-6.07;96.04;97343.28;5091898;28;20040;-73
2021/01/28 05:40:38;;;;;;;167.20;63.92;;;;;;;-6.05;95.36;97334.72;5090716;28;20132;-74
2021/01/28 05:43:31;;;;;;;134.50;51.65;;;;;;;-6.10;95.67;97336.53;5091032;28;20032;-75
2021/01/28 05:46:17;;;;;;;138.75;54.58;;;;;;;-6.12;95.36;97334.00;5091787;28;20539;-77
2021/01/28 05:48:59;;;;;;;172.93;65.20;;;;;;;-6.27;95.29;97331.72;5094942;28;20058;-78
2021/01/28 05:51:35;;;;;;;170.13;59.72;;;;;;;-6.25;95.87;97329.97;5096604;28;20040;-78
2021/01/28 05:54:13;;;;;;;162.98;63.08;;;;;;;-6.34;95.54;97325.84;5094554;28;20507;-77
2021/01/28 05:57:09;;;;;;;153.05;58.00;;;;;;;-6.28;96.10;97330.03;5096461;28;20101;-77
2021/01/28 06:00:06;;;;;;;146.95;55.85;;;;;;;-6.25;95.29;97321.50;5096518;28;20048;-77
2021/01/28 06:02:51;;;;;;;158.77;61.10;;;;;;;-6.22;94.86;97298.47;5096550;28;20066;-77
2021/01/28 06:05:35;;;;;;;163.00;59.30;;;;;;;-6.34;95.07;97300.34;5094778;28;20044;-77
2021/01/28 06:08:47;;;;;;;167.15;61.97;;;;;;;-6.29;94.71;97295.16;5095725;28;20098;-79
2021/01/28 06:11:53;;;;;;;153.75;57.15;;;;;;;-6.40;95.03;97289.41;5096100;28;20044;-79
2021/01/28 06:14:38;;;;;;;170.07;62.05;;;;;;;-6.37;95.12;97284.28;5095763;28;20040;-78
2021/01/28 06:17:32;;;;;;;161.40;52.85;;;;;;;-6.44;94.67;97288.63;5095158;28;20117;-74
2021/01/28 06:20:47;;;;;;;155.07;55.75;;;;;;;-6.48;94.59;97282.72;5095834;28;20047;-75
2021/01/28 06:24:00;;;;;;;156.90;59.58;;;;;;;-6.39;94.08;97297.03;5095802;28;20383;-77
2021/01/28 06:26:46;;;;;;;150.38;54.17;;;;;;;-6.46;93.03;97285.25;5095671;28;20052;-78
2021/01/28 06:29:26;;;;;;;141.95;53.20;;;;;;;-6.48;93.14;97294.66;5078519;28;20056;-78
2021/01/28 06:32:19;;;;;;;140.13;50.65;;;;;;;-6.38;92.99;97292.78;5094866;28;20044;-74
2021/01/28 06:35:20;;;;;;;129.80;50.67;;;;;;;-6.35;92.04;97292.72;5094696;28;20126;-76
2021/01/28 06:38:04;;;;;;;129.13;47.78;;;;;;;-6.34;90.80;97291.88;5091251;28;20074;-74
2021/01/28 06:40:32;;;;;;;130.65;48.72;;;;;;;-6.41;91.03;97293.69;5093841;28;20048;-72
2021/01/28 06:43:09;;;;;;;126.10;45.42;;;;;;;-6.37;90.29;97294.47;5094238;28;20487;-73
2021/01/28 06:46:00;;;;;;;136.35;51.42;;;;;;;-6.41;90.50;97295.38;5093948;28;20040;-73
2021/01/28 06:48:36;;;;;;;132.18;47.92;;;;;;;-6.38;90.02;97293.63;5093936;28;20052;-74
2021/01/28 06:51:15;;;;;;;119.38;45.97;;;;;;;-6.34;89.75;97291.88;5094763;28;20036;-73
2021/01/28 06:53:51;;;;;;;125.25;45.78;;;;;;;-6.32;89.33;97277.38;5094672;28;20040;-75
2021/01/28 06:56:46;;;;;;;117.10;46.58;;;;;;;-6.39;89.56;97269.00;5095887;28;20068;-74
2021/01/28 06:59:51;;;;;;;119.63;43.63;;;;;;;-6.19;88.92;97262.72;5076929;28;20458;-75
2021/01/28 07:02:44;;;;;;;125.07;48.80;;;;;;;-6.18;88.53;97255.03;5096874;28;20051;-75
2021/01/28 07:05:30;;;;;;;133.65;48.42;;;;;;;-6.15;88.48;97254.97;5096298;28;20043;-73
2021/01/28 07:08:28;;;;;;;135.25;49.25;;;;;;;-6.01;87.52;97257.28;5094824;28;20445;-70
2021/01/28 07:10:54;;;;;;;145.75;48.38;;;;;;;-5.99;88.20;97250.41;5074539;28;20044;-73
2021/01/28 07:13:28;;;;;;;140.68;50.47;;;;;;;-5.97;87.88;97237.63;5094848;28;20049;-71
2021/01/28 07:16:01;;;;;;;122.40;46.58;;;;;;;-5.93;87.19;97232.41;5093343;28;20484;-72
2021/01/28 07:18:32;;;;;;;;;;;;;;;-5.80;86.17;97238.09;5093862;28;20430;-74
2021/01/28 07:21:05;;;;;;;155.63;55.10;;;;;;;-5.87;85.98;97228.91;5092889;28;19931;-74
2021/01/28 07:23:39;;;;;;;134.73;50.72;;;;;;;-5.87;86.95;97228.91;5094406;28;20044;-74
2021/01/28 07:26:17;;;;;;;136.15;50.50;;;;;;;-5.89;86.31;97237.44;5094559;28;20459;-75
2021/01/28 07:28:47;;;;;;;142.43;52.35;;;;;;;-5.91;86.63;97232.38;5093581;28;20114;-74
2021/01/28 07:31:24;;;;;;;127.85;46.85;;;;;;;-5.81;86.80;97233.00;5093913;28;20051;-74
2021/01/28 07:34:00;;;;;;;131.10;49.72;;;;;;;-5.73;86.59;97225.19;5094167;28;20097;-73
2021/01/28 07:36:26;;;;;;;117.22;46.65;;;;;;;-5.53;85.81;97212.03;5093920;28;20094;-77
2021/01/28 07:38:56;;;;;;;142.93;51.83;;;;;;;-5.42;85.42;97208.38;5094123;28;20040;-76
2021/01/28 07:41:52;;;;;;;131.60;48.88;;;;;;;-5.37;84.02;97212.53;5094075;28;20392;-75
2021/01/28 07:44:24;;;;;;;134.52;50.97;;;;;;;-5.27;84.45;97198.66;5093992;28;20070;-74
2021/01/28 07:46:58;;;;;;;137.23;53.60;;;;;;;-5.24;83.37;97196.03;5094338;28;20051;-74
2021/01/28 07:49:35;;;;;;;134.90;50.90;;;;;;;-5.19;83.89;97194.22;5092825;28;20059;-78
2021/01/28 07:52:16;;;;;;;122.78;44.85;;;;;;;-5.05;85.45;97199.00;5092809;28;20068;-78
2021/01/28 07:54:50;;;;;;;102.13;37.22;;;;;;;-4.97;83.85;97197.13;5093478;28;20079;-79
2021/01/28 07:57:28;;;;;;;88.75;33.80;;;;;;;-4.97;82.99;97186.03;5092708;28;20435;-77
2021/01/28 07:59:59;;;;;;;112.25;46.00;;;;;;;-4.88;82.73;97188.38;5093097;28;20040;-76
2021/01/28 08:02:34;;;;;;;120.10;44.22;;;;;;;-4.70;81.85;97180.25;5094502;28;20052;-78
2021/01/28 08:05:09;;;;;;;117.40;46.03;;;;;;;-4.51;82.43;97179.78;5092568;28;20433;-77
2021/01/28 08:07:38;;;;;;;104.07;43.00;;;;;;;-4.39;81.44;97183.75;5093451;28;20090;-78
2021/01/28 08:10:37;;;;;;;118.97;46.85;;;;;;;-4.27;81.16;97175.75;5092612;28;20494;-77
2021/01/28 08:13:11;;;;;;;124.53;49.70;;;;;;;-4.19;79.91;97170.41;5093290;28;20433;-80
2021/01/28 08:15:49;;;;;;;129.35;49.28;;;;;;;-4.02;79.97;97165.66;5093494;28;20040;-78
2021/01/28 08:18:21;;;;;;;127.63;52.10;;;;;;;-3.62;79.29;97163.69;5092499;28;20511;-79
2021/01/28 08:20:49;;;;;;;123.82;49.33;;;;;;;-3.08;77.36;97162.84;5093350;28;20131;-79
2021/01/28 08:23:26;;;;;;;90.60;36.95;;;;;;;-3.12;76.05;97156.16;5092254;28;20039;-78
2021/01/28 08:26:03;;;;;;;107.75;42.60;;;;;;;-3.06;74.82;97175.63;5093890;28;20388;-78
2021/01/28 08:28:38;;;;;;;101.53;40.10;;;;;;;-3.27;75.71;97152.34;5093800;28;20044;-78
2021/01/28 08:31:26;;;;;;;106.28;42.72;;;;;;;-3.13;75.64;97164.75;5093737;28;20040;-78
2021/01/28 08:34:02;;;;;;;92.47;34.60;;;;;;;-3.27;76.44;97162.59;5092995;28;20079;-77
2021/01/28 08:36:41;;;;;;;96.00;39.25;;;;;;;-3.06;76.47;97161.09;5093679;28;20118;-78
2021/01/28 08:39:13;;;;;;;83.47;32.65;;;;;;;-3.36;77.83;97156.94;5091928;28;20044;-79
2021/01/28 08:41:41;;;;;;;101.30;36.22;;;;;;;-3.13;76.95;97164.75;5092676;28;20059;-78
2021/01/28 08:44:13;;;;;;;91.93;31.05;;;;;;;-3.20;77.64;97165.81;5093200;28;20410;-78
2021/01/28 08:46:42;;;;;;;88.80;34.40;;;;;;;-3.45;78.48;97148.63;5093734;28;20044;-79
2021/01/28 08:49:18;;;;;;;88.72;29.88;;;;;;;-3.15;78.05;97163.09;5092007;28;20055;-78
2021/01/28 08:52:05;;;;;;;90.35;30.15;;;;;;;-3.21;77.37;97161.59;5091839;28;20040;-78
2021/01/28 08:54:36;;;;;;;94.38;32.05;;;;;;;-3.07;77.08;97158.59;5092187;28;20460;-79
2021/01/28 08:57:03;;;;;;;96.43;35.30;;;;;;;-3.01;76.72;97140.44;5093155;28;20135;-78
2021/01/28 09:00:00;;;;;;;82.70;30.33;;;;;;;-2.94;76.87;97131.63;5091513;28;20043;-79
2021/01/28 09:02:32;;;;;;;72.35;26.83;;;;;;;-2.92;77.15;97121.34;5089943;28;20444;-78
2021/01/28 09:05:13;;;;;;;78.03;26.90;;;;;;;-2.90;76.88;97114.44;5093637;28;20101;-76
2021/01/28 09:07:52;;;;;;;86.40;34.85;;;;;;;-2.65;75.82;97129.84;5093371;28;20109;-78
2021/01/28 09:10:34;;;;;;;83.15;29.67;;;;;;;-2.50;75.32;97127.63;5092840;28;20067;-78
2021/01/28 09:13:27;;;;;;;69.40;29.83;;;;;;;-2.65;76.64;97108.47;5092700;28;20044;-76
2021/01/28 09:16:21;;;;;;;68.28;29.30;;;;;;;-2.25;75.56;97118.19;5091616;28;20368;-78
2021/01/28 09:18:52;;;;;;;62.58;24.25;;;;;;;-2.44;76.32;97114.56;5091518;28;20353;-77
2021/01/28 09:21:20;;;;;;;62.28;25.08;;;;;;;-2.13;76.49;97110.91;5094592;28;20125;-78
2021/01/28 09:24:19;;;;;;;55.08;22.30;;;;;;;-1.79;74.74;97105.38;5096918;28;20056;-78
2021/01/28 09:26:46;;;;;;;56.65;25.77;;;;;;;-0.89;71.88;97094.97;5097246;28;20476;-77
2021/01/28 09:29:31;;;;;;;59.92;24.52;;;;;;;-0.66;70.24;97106.06;5096683;28;20476;-77
2021/01/28 09:32:24;;;;;;;49.92;21.65;;;;;;;-0.87;71.31;97094.91;5096823;28;20404;-77
2021/01/28 09:35:17;;;;;;;45.72;19.20;;;;;;;-0.99;71.84;97096.25;5096793;28;20048;-78
2021/01/28 09:38:04;;;;;;;42.83;17.48;;;;;;;-1.11;73.95;97088.13;5097623;28;20114;-78
2021/01/28 09:40:36;;;;;;;46.03;19.88;;;;;;;-0.79;71.46;97088.56;5096343;28;20059;-77
2021/01/28 09:43:32;;;;;;;47.33;20.27;;;;;;;-0.61;72.10;97091.25;5096971;28;20080;-75
2021/01/28 09:46:20;;;;;;;40.90;18.40;;;;;;;-0.50;72.21;97081.31;5095968;28;20075;-76
2021/01/28 09:48:50;;;;;;;38.15;17.85;;;;;;;-0.80;72.25;97081.72;5096681;28;20462;-78
2021/01/28 09:51:36;;;;;;;35.80;16.65;;;;;;;-0.37;70.88;97074.72;5096972;28;20048;-76
2021/01/28 09:54:24;;;;;;;48.50;18.20;;;;;;;-0.22;70.34;97074.94;5096036;28;20093;-77
2021/01/28 09:56:50;;;;;;;41.17;18.75;;;;;;;0.01;69.98;97052.47;5096032;28;20051;-76
2021/01/28 09:59:16;;;;;;;45.88;20.17;;;;;;;-0.36;71.99;97062.69;5095605;28;20189;-77
2021/01/28 10:01:46;;;;;;;51.90;22.92;;;;;;;-0.44;71.71;97057.03;5096122;28;20150;-77
2021/01/28 10:04:14;;;;;;;35.38;17.15;;;;;;;-0.18;70.75;97040.44;5094881;28;20059;-77
2021/01/28 10:06:40;;;;;;;48.47;20.88;;;;;;;0.11;71.08;97039.09;5096749;28;20051;-77
2021/01/28 10:09:08;;;;;;;54.33;16.13;;;;;;;-0.42;71.82;97043.19;5096217;28;20462;-77
2021/01/28 10:11:34;;;;;;;40.17;16.20;;;;;;;-0.48;72.72;97029.75;5096726;28;20127;-77
2021/01/28 10:14:01;;;;;;;44.78;18.23;;;;;;;0.10;70.79;97021.13;5078495;28;20094;-76
2021/01/28 10:16:28;;;;;;;47.70;20.60;;;;;;;0.95;67.10;97007.56;5097567;28;20043;-76
2021/01/28 10:18:54;;;;;;;43.75;19.13;;;;;;;0.41;68.94;96991.31;5097247;28;20044;-77
2021/01/28 10:21:21;;;;;;;44.85;18.48;;;;;;;0.07;71.20;96988.59;5079603;28;20368;-76
2021/01/28 10:23:47;;;;;;;46.20;20.48;;;;;;;0.35;69.96;96984.69;5096246;28;20044;-77
2021/01/28 10:26:13;;;;;;;40.70;17.58;;;;;;;-0.20;72.43;96991.56;5096119;28;20051;-77
2021/01/28 10:28:39;;;;;;;41.75;16.38;;;;;;;0.21;72.94;96985.38;5097297;28;20139;-77
2021/01/28 10:31:06;;;;;;;32.83;15.07;;;;;;;0.21;72.83;96993.09;5112180;28;20122;-76
2021/01/28 10:33:35;;;;;;;41.00;18.13;;;;;;;0.75;70.77;97002.56;5095189;28;20044;-77
2021/01/28 10:36:02;;;;;;;30.10;13.93;;;;;;;0.73;70.39;96983.72;5095844;28;20059;-77
2021/01/28 10:38:29;;;;;;;36.90;18.80;;;;;;;1.21;69.80;96982.16;5094840;28;20480;-78
2021/01/28 10:40:56;;;;;;;40.13;19.98;;;;;;;1.16;68.34;96973.81;5096166;28;20056;-76
2021/01/28 10:43:23;;;;;;;38.42;17.55;;;;;;;1.00;69.47;96966.84;5095357;28;20044;-75
2021/01/28 10:45:50;;;;;;;42.70;20.10;;;;;;;1.95;66.02;96958.41;5095509;28;20052;-77
2021/01/28 10:48:17;;;;;;;33.45;16.50;;;;;;;1.37;69.45;96949.44;5096070;28;20052;-77
2021/01/28 10:50:44;;;;;;;43.30;18.65;;;;;;;1.23;69.53;96957.09;5094720;28;20549;-80
2021/01/28 10:53:11;;;;;;;32.58;15.20;;;;;;;1.20;69.54;96945.19;5095283;28;20392;-75
2021/01/28 10:55:38;;;;;;;39.25;18.25;;;;;;;2.03;66.78;96954.56;5094042;28;20044;-76
2021/01/28 10:58:04;;;;;;;39.60;17.02;;;;;;;1.37;69.10;96948.63;5095238;28;20044;-78
2021/01/28 11:00:32;;;;;;;35.42;15.55;;;;;;;1.55;69.17;96933.91;5095350;28;20395;-77
2021/01/28 11:02:58;;;;;;;29.60;12.60;;;;;;;1.24;69.30;96931.19;5095616;28;20040;-77
2021/01/28 11:05:34;;;;;;;33.80;16.73;;;;;;;1.53;68.71;96934.00;5094927;28;20052;-78
2021/01/28 11:08:03;;;;;;;38.42;18.67;;;;;;;1.70;68.43;96938.25;5095016;28;20491;-77
2021/01/28 11:10:29;;;;;;;32.45;15.32;;;;;;;1.53;69.15;96933.13;5093738;28;20060;-77
2021/01/28 11:12:58;;;;;;;32.25;16.40;;;;;;;1.37;70.99;96921.03;5093717;28;20044;-77
2021/01/28 11:15:27;;;;;;;35.30;16.95;;;;;;;1.72;70.24;96927.84;5094752;28;20040;-78
2021/01/28 11:17:54;;;;;;;32.75;16.92;;;;;;;2.19;66.65;96915.75;5095167;28;20052;-78
2021/01/28 11:20:20;;;;;;;32.00;16.13;;;;;;;1.38;70.79;96927.06;5093011;28;20049;-76
2021/01/28 11:22:47;;;;;;;37.22;16.17;;;;;;;1.03;71.15;96909.91;5093938;28;20055;-77
2021/01/28 11:25:18;;;;;;;36.38;16.55;;;;;;;1.12;70.78;96911.19;5094389;28;20055;-76
2021/01/28 11:27:45;;;;;;;39.63;17.93;;;;;;;0.97;72.09;96901.66;5095096;28;20040;-76
2021/01/28 11:30:13;;;;;;;34.90;17.23;;;;;;;1.15;71.89;96903.28;5095160;28;20097;-76
2021/01/28 11:32:40;;;;;;;36.40;18.30;;;;;;;0.98;72.39;96899.00;5094858;28;20134;-77
2021/01/28 11:35:07;;;;;;;29.42;13.98;;;;;;;0.87;72.26;96888.44;5094334;28;20052;-77
2021/01/28 11:37:33;;;;;;;31.80;13.88;;;;;;;0.76;73.02;96870.91;5094302;28;20101;-76
2021/01/28 11:39:59;;;;;;;34.75;14.18;;;;;;;0.66;73.84;96878.28;5093696;28;20123;-77